Flight Track Log - Related Links

Times and Time Zones

All times are in EDT time to prevent confusion due to time zone crossing. See the A6-EGC flight status page for this flight to view local times or setup timezone preferences in your user account.

Time Position Orientation Groundspeed Altitude Reporting Facility
EDT Latitude Longitude Course Direction KTS MPH feet Rate Location/Type
Sat 07:22:02 AM 25.3040 55.2780 298° West 236 272 3,200  Level FlightAware ADS-B
Sat 07:22:17 AM 25.3090 55.2610 288° West 259 298 3,400 2,200 Climbing FlightAware ADS-B
Sat 07:22:32 AM 25.3100 55.2360 273° West 273 314 4,300 3,450 Climbing FlightAware ADS-B
Sat 07:22:57 AM 25.3120 55.1990 273° West 280 322 5,700 3,055 Climbing FlightAware ADS-B
Sat 07:23:27 AM 25.3140 55.1560 273° West 293 337 7,100 2,000 Climbing FlightAware ADS-B
Sat 07:23:57 AM 25.3160 55.1070 273° West 341 392 7,700 1,418 Climbing FlightAware ADS-B
Sat 07:24:22 AM 25.3180 55.0610 273° West 372 428 8,400 2,291 Climbing FlightAware ADS-B
Sat 07:24:52 AM 25.3270 55.0040 280° West 385 443 9,800 3,000 Climbing FlightAware ADS-B
Sat 07:25:32 AM 25.3460 54.9270 285° West 395 455 11,900 2,682 Climbing FlightAware ADS-B
Sat 07:26:17 AM 25.3680 54.8400 286° West 390 449 13,600 2,612 Climbing FlightAware ADS-B
Sat 07:26:57 AM 25.3880 54.7630 286° West 398 458 15,600 2,894 Climbing FlightAware ADS-B
Sat 07:27:42 AM 25.4090 54.6740 285° West 407 468 17,700 2,682 Climbing FlightAware ADS-B
Sat 07:28:22 AM 25.4290 54.5920 285° West 419 482 19,400 3,075 Climbing FlightAware ADS-B
Sat 07:29:02 AM 25.4490 54.5110 285° West 410 472 21,800 2,894 Climbing FlightAware ADS-B
Sat 07:29:47 AM 25.4720 54.4170 285° West 419 482 23,500 2,329 Climbing FlightAware ADS-B
Sat 07:30:27 AM 25.4930 54.3330 285° West 428 493 25,100 2,325 Climbing FlightAware ADS-B
Sat 07:31:07 AM 25.5140 54.2470 285° West 434 499 26,600 2,188 Climbing FlightAware ADS-B
Sat 07:31:52 AM 25.5370 54.1500 285° West 441 507 28,200 1,976 Climbing FlightAware ADS-B
Sat 07:32:32 AM 25.5590 54.0620 286° West 449 517 29,400 2,188 Climbing FlightAware ADS-B
Sat 07:33:17 AM 25.5830 53.9620 285° West 444 511 31,300 2,894 Climbing FlightAware ADS-B
Sat 07:33:57 AM 25.6030 53.8770 285° West 417 480 33,500 2,612 Climbing FlightAware ADS-B
Sat 07:34:42 AM 25.6250 53.7850 285° West 412 474 35,000 1,765 Climbing FlightAware ADS-B
Sat 07:35:22 AM 25.6450 53.7030 285° West 408 470 36,000 750 Climbing FlightAware ADS-B
Sat 07:36:02 AM 25.6640 53.6230 285° West 403 464 36,000  Level FlightAware ADS-B
Sat 07:36:47 AM 25.6860 53.5330 285° West 402 463 36,000  Level FlightAware ADS-B
Sat 07:37:27 AM 25.7040 53.4550 284° West 402 463 36,000  Level FlightAware ADS-B
Sat 07:38:12 AM 25.7250 53.3640 284° West 401 461 36,000  Level FlightAware ADS-B
Sat 07:38:52 AM 25.7420 53.2860 284° West 398 458 36,000  Level FlightAware ADS-B
Sat 07:39:32 AM 25.7520 53.2030 278° West 396 456 36,000  Level FlightAware ADS-B
Sat 07:40:17 AM 25.7610 53.1130 276° West 396 456 36,000  Level FlightAware ADS-B
Sat 07:40:57 AM 25.7830 53.0350 287° West 409 471 36,000  Level FlightAware ADS-B
Sat 07:41:37 AM 25.8190 52.9600 298° West 413 475 36,000  Level FlightAware ADS-B
Sat 07:42:22 AM 25.8600 52.8750 298° West 414 476 36,000  Level FlightAware ADS-B
Sat 07:43:02 AM 25.8970 52.7980 298° West 415 478 36,000  Level FlightAware ADS-B
Sat 07:43:47 AM 25.9370 52.7150 298° West 415 478 36,000  Level FlightAware ADS-B
Sat 07:44:42 AM 25.9840 52.6160 298° West 417 480 36,000  Level FlightAware ADS-B
Sat 07:45:22 AM 26.0230 52.5350 298° West 418 481 36,000  Level FlightAware ADS-B
Sat 07:46:02 AM 26.0560 52.4670 298° West 418 481 36,000  Level FlightAware ADS-B
Sat 07:46:47 AM 26.1010 52.3720 298° West 419 482 36,000  Level FlightAware ADS-B
Sat 07:48:27 AM 26.1860 52.1920 298° West 420 483 36,000  Level FlightAware ADS-B
Sat 07:49:07 AM 26.2250 52.1110 298° West 420 483 36,000  Level FlightAware ADS-B
Sat 07:49:47 AM 26.2600 52.0370 298° West 420 483 36,000  Level FlightAware ADS-B
Sat 07:50:32 AM 26.3020 51.9480 298° West 422 486 36,000  Level FlightAware ADS-B
Sat 07:51:12 AM 26.3360 51.8750 297° West 422 486 36,000  Level FlightAware ADS-B
Sat 07:51:52 AM 26.3750 51.7930 298° West 422 486 36,000  Level FlightAware ADS-B
Sat 07:52:37 AM 26.4160 51.7040 297° West 421 484 36,000  Level FlightAware ADS-B
Sat 07:53:17 AM 26.4510 51.6290 298° West 420 483 36,000  Level FlightAware ADS-B
Sat 07:54:02 AM 26.4890 51.5480 298° West 420 483 36,000  Level FlightAware ADS-B
Sat 07:54:42 AM 26.5270 51.4660 297° West 419 482 36,000  Level FlightAware ADS-B
Sat 07:55:22 AM 26.5620 51.3890 297° West 420 483 36,000  Level FlightAware ADS-B
Sat 07:56:07 AM 26.6030 51.3010 298° West 416 479 36,000  Level FlightAware ADS-B
Sat 07:56:47 AM 26.6330 51.2270 294° West 413 475 36,000  Level FlightAware ADS-B
Sat 07:57:32 AM 26.6700 51.1340 294° West 416 479 36,000  Level FlightAware ADS-B
Sat 07:58:12 AM 26.7000 51.0560 293° West 415 478 36,000  Level FlightAware ADS-B
Sat 07:58:52 AM 26.7300 50.9790 294° West 414 476 36,000  Level FlightAware ADS-B
Sat 07:59:32 AM 26.7590 50.9020 293° West 414 476 36,000  Level FlightAware ADS-B
Sat 08:00:12 AM 26.7880 50.8280 294° West 413 475 36,000  Level FlightAware ADS-B
Sat 08:01:02 AM 26.8300 50.7180 293° West 413 475 36,000  Level FlightAware ADS-B
Sat 08:01:42 AM 26.8590 50.6430 293° West 413 475 36,000  Level FlightAware ADS-B
Sat 08:02:22 AM 26.8840 50.5790 294° West 413 475 36,000  Level FlightAware ADS-B
Sat 08:03:02 AM 26.9090 50.5120 293° West 413 475 36,000  Level FlightAware ADS-B
Sat 08:03:42 AM 26.9340 50.4450 293° West 413 475 36,000  Level FlightAware ADS-B
Sat 08:04:32 AM 26.9660 50.3610 293° West 413 475 36,000  Level FlightAware ADS-B
Sat 08:05:12 AM 26.9920 50.2940 294° West 413 475 36,000  Level FlightAware ADS-B
Sat 08:05:52 AM 27.0170 50.2260 292° West 413 475 36,000  Level FlightAware ADS-B
Sat 08:06:32 AM 27.0420 50.1590 293° West 413 475 36,000  Level FlightAware ADS-B
Sat 08:07:12 AM 27.0680 50.0920 294° West 413 475 36,000  Level FlightAware ADS-B
Sat 08:08:02 AM 27.0990 50.0080 293° West 413 475 36,000  Level FlightAware ADS-B
Sat 08:08:42 AM 27.1250 49.9410 294° West 413 475 36,000  Level FlightAware ADS-B
Sat 08:09:22 AM 27.1500 49.8740 293° West 413 475 36,000  Level FlightAware ADS-B
Sat 08:10:02 AM 27.1760 49.8070 294° West 413 475 36,000  Level FlightAware ADS-B
Sat 08:10:42 AM 27.2010 49.7390 292° West 413 475 36,000  Level FlightAware ADS-B
Sat 08:11:32 AM 27.2330 49.6550 293° West 413 475 36,000  Level FlightAware ADS-B
Sat 08:14:00 AM 27.4527 49.4701 323° Northwest  Level Estimated
Sat 08:14:17 AM 27.8610 49.4610 323° Northwest 457 526 36,000  Level FlightAware ADS-B
Sat 08:14:52 AM 27.9180 49.4150 325° Northwest 458 527 36,000  Level FlightAware ADS-B
Sat 08:15:52 AM 28.0310 49.3320 327° Northwest 473 544 36,000  Level FlightAware ADS-B
Sat 08:16:37 AM 28.1200 49.2760 331° Northwest 473 544 36,000  Level FlightAware ADS-B
Sat 08:17:17 AM 28.1930 49.2310 331° Northwest 474 545 36,000  Level FlightAware ADS-B
Sat 08:18:02 AM 28.2770 49.1800 332° Northwest 473 544 36,000  Level FlightAware ADS-B
Sat 08:18:42 AM 28.3560 49.1310 331° Northwest 471 542 36,000  Level FlightAware ADS-B
Sat 08:19:27 AM 28.4360 49.0760 329° Northwest 463 533 36,000  Level FlightAware ADS-B
Sat 08:20:02 AM 28.5000 49.0270 326° Northwest 464 534 36,000  Level FlightAware ADS-B
Sat 08:20:52 AM 28.5830 48.9630 326° Northwest 466 536 36,000  Level FlightAware ADS-B
Sat 08:21:32 AM 28.6670 48.8980 326° Northwest 467 537 36,000  Level FlightAware ADS-B
Sat 08:22:07 AM 28.7210 48.8570 326° Northwest 468 539 36,000  Level FlightAware ADS-B
Sat 08:22:57 AM 28.8100 48.7880 326° Northwest 467 537 36,000  Level FlightAware ADS-B
Sat 08:23:37 AM 28.8840 48.7310 326° Northwest 467 537 36,000  Level FlightAware ADS-B
Sat 08:24:22 AM 28.9660 48.6680 326° Northwest 469 540 36,000  Level FlightAware ADS-B
Sat 08:25:02 AM 29.0250 48.6230 326° Northwest 468 539 36,000  Level FlightAware ADS-B
Sat 08:25:42 AM 29.1080 48.5590 326° Northwest 466 536 36,000  Level FlightAware ADS-B
Sat 08:26:27 AM 29.1910 48.4950 326° Northwest 463 533 36,000  Level FlightAware ADS-B
Sat 08:27:12 AM 29.2670 48.4370 326° Northwest 459 528 36,000  Level FlightAware ADS-B
Sat 08:27:47 AM 29.3300 48.3880 326° Northwest 462 532 36,000  Level FlightAware ADS-B
Sat 08:28:32 AM 29.4140 48.3230 326° Northwest 466 536 36,000  Level FlightAware ADS-B
Sat 08:29:27 AM 29.5130 48.2540 329° Northwest 474 545 36,000  Level FlightAware ADS-B
Sat 08:30:07 AM 29.5890 48.2040 330° Northwest 482 555 36,000  Level FlightAware ADS-B
Sat 08:30:52 AM 29.6800 48.1450 331° Northwest 478 550 36,000  Level FlightAware ADS-B
Sat 08:31:37 AM 29.7470 48.1000 330° Northwest 478 550 36,000  Level FlightAware ADS-B
Sat 08:32:17 AM 29.8120 48.0570 330° Northwest 478 550 36,000  Level FlightAware ADS-B
Sat 08:33:02 AM 29.9250 47.9830 330° Northwest 488 562 36,000  Level FlightAware ADS-B
Sat 08:33:42 AM 30.0030 47.9280 329° Northwest 481 554 36,000  Level FlightAware ADS-B
Sat 08:34:22 AM 30.0690 47.8570 317° Northwest 460 529 36,000  Level FlightAware ADS-B
Sat 08:35:07 AM 30.1280 47.7780 311° West 461 531 36,000  Level FlightAware ADS-B
Sat 08:35:47 AM 30.1870 47.6980 310° West 464 534 36,000  Level FlightAware ADS-B
Sat 08:36:32 AM 30.2440 47.6200 310° West 466 536 36,000  Level FlightAware ADS-B
Sat 08:37:12 AM 30.2910 47.5550 310° West 466 536 36,000  Level FlightAware ADS-B
Sat 08:37:52 AM 30.3380 47.4900 310° West 466 536 36,000  Level FlightAware ADS-B
Sat 08:38:32 AM 30.3850 47.4240 310° West 466 536 36,000  Level FlightAware ADS-B
Sat 08:39:12 AM 30.4330 47.3590 311° West 466 536 36,000  Level FlightAware ADS-B
Sat 08:40:02 AM 30.4910 47.2780 310° West 466 536 36,000  Level FlightAware ADS-B
Sat 08:40:42 AM 30.5390 47.2130 311° West 466 536 36,000  Level FlightAware ADS-B
Sat 08:41:22 AM 30.5860 47.1480 310° West 466 536 36,000  Level FlightAware ADS-B
Sat 08:42:02 AM 30.6330 47.0820 310° West 466 536 36,000  Level FlightAware ADS-B
Sat 08:42:42 AM 30.6800 47.0170 310° West 466 536 36,000  Level FlightAware ADS-B
Sat 08:43:32 AM 30.7390 46.9350 310° West 466 536 36,000  Level FlightAware ADS-B
Sat 08:44:12 AM 30.7860 46.8700 310° West 466 536 36,000  Level FlightAware ADS-B
Sat 08:44:52 AM 31.0520 46.7440 338° Northwest 491 565 36,000  Level FlightAware ADS-B
Sat 08:45:32 AM 31.1100 46.6830 318° Northwest 491 565 36,000  Level FlightAware ADS-B
Sat 08:46:12 AM 31.1670 46.6230 318° Northwest 491 565 36,000  Level FlightAware ADS-B
Sat 08:47:02 AM 31.2390 46.5480 318° Northwest 491 565 36,000  Level FlightAware ADS-B
Sat 08:47:42 AM 31.2960 46.4870 318° Northwest 491 565 36,000  Level FlightAware ADS-B
Sat 08:48:22 AM 31.3540 46.4270 319° Northwest 491 565 36,000  Level FlightAware ADS-B
Sat 08:49:02 AM 31.4110 46.3660 318° Northwest 491 565 36,000  Level FlightAware ADS-B
Sat 08:49:42 AM 31.4680 46.3050 318° Northwest 491 565 36,000  Level FlightAware ADS-B
Sat 08:50:32 AM 31.5400 46.2300 318° Northwest 491 565 36,000  Level FlightAware ADS-B
Sat 08:51:12 AM 31.5970 46.1690 318° Northwest 491 565 36,000  Level FlightAware ADS-B
Sat 08:51:52 AM 31.6550 46.1080 318° Northwest 491 565 36,000  Level FlightAware ADS-B
Sat 08:52:32 AM 31.7120 46.0480 318° Northwest 491 565 36,000  Level FlightAware ADS-B
Sat 08:53:12 AM 31.7700 45.9870 318° Northwest 491 565 36,000  Level FlightAware ADS-B
Sat 08:54:02 AM 31.8410 45.9110 318° Northwest 491 565 36,000  Level FlightAware ADS-B
Sat 08:56:00 AM 32.0110 45.7489 321° Northwest  Level Estimated
Sat 08:57:00 AM 32.0974 45.6663 321° Northwest  Level Estimated
Sat 08:58:00 AM 32.1837 45.5835 321° Northwest  Level Estimated
Sat 08:58:52 AM 32.4980 45.2390 321° Northwest 483 556 36,000  Level FlightAware ADS-B
Sat 08:59:37 AM 32.5740 45.1580 318° Northwest 487 560 36,000  Level FlightAware ADS-B
Sat 09:00:17 AM 32.6460 45.0870 320° Northwest 490 564 36,000  Level FlightAware ADS-B
Sat 09:00:52 AM 32.7120 45.0410 330° Northwest 494 568 36,000  Level FlightAware ADS-B
Sat 09:01:37 AM 32.8050 44.9850 333° Northwest 493 567 36,000  Level FlightAware ADS-B
Sat 09:02:22 AM 32.9000 44.9280 333° Northwest 491 565 36,000  Level FlightAware ADS-B
Sat 09:03:07 AM 32.9880 44.8740 333° Northwest 484 557 36,000  Level FlightAware ADS-B
Sat 09:03:47 AM 33.0670 44.8250 333° Northwest 480 552 36,000  Level FlightAware ADS-B
Sat 09:04:27 AM 33.1480 44.7750 333° Northwest 479 551 36,000  Level FlightAware ADS-B
Sat 09:05:12 AM 33.2350 44.7280 336° Northwest 486 559 36,000  Level FlightAware ADS-B
Sat 09:05:52 AM 33.3220 44.6940 342° North 489 563 36,000  Level FlightAware ADS-B
Sat 09:06:37 AM 33.4220 44.6580 343° North 489 563 36,000  Level FlightAware ADS-B
Sat 09:07:17 AM 33.5080 44.6260 343° North 484 557 36,000  Level FlightAware ADS-B
Sat 09:07:57 AM 33.5920 44.5880 339° North 482 555 36,000  Level FlightAware ADS-B
Sat 09:08:42 AM 33.6840 44.5430 338° Northwest 484 557 36,000  Level FlightAware ADS-B
Sat 09:09:22 AM 33.7670 44.5020 338° Northwest 485 558 36,000  Level FlightAware ADS-B
Sat 09:10:07 AM 33.8640 44.4540 338° Northwest 487 560 36,000  Level FlightAware ADS-B
Sat 09:10:42 AM 33.9350 44.4190 338° Northwest 488 562 36,000  Level FlightAware ADS-B
Sat 09:11:22 AM 34.0200 44.3770 338° Northwest 486 559 36,000  Level FlightAware ADS-B
Sat 09:12:12 AM 34.1160 44.3290 338° Northwest 486 559 36,000  Level FlightAware ADS-B
Sat 09:12:52 AM 34.2020 44.2870 338° Northwest 486 559 36,000  Level FlightAware ADS-B
Sat 09:13:32 AM 34.2910 44.2430 338° Northwest 483 556 36,000  Level FlightAware ADS-B
Sat 09:14:17 AM 34.3830 44.1960 337° Northwest 481 554 36,000  Level FlightAware ADS-B
Sat 09:15:02 AM 34.4780 44.1490 338° Northwest 481 554 36,000  Level FlightAware ADS-B
Sat 09:15:42 AM 34.5580 44.1080 337° Northwest 484 557 36,000  Level FlightAware ADS-B
Sat 09:16:27 AM 34.6500 44.0590 336° Northwest 487 560 36,000  Level FlightAware ADS-B
Sat 09:17:07 AM 34.7330 44.0160 337° Northwest 488 562 36,000  Level FlightAware ADS-B
Sat 09:17:47 AM 34.8170 43.9720 337° Northwest 486 559 36,000  Level FlightAware ADS-B
Sat 09:18:32 AM 34.9100 43.9230 337° Northwest 485 558 36,000  Level FlightAware ADS-B
Sat 09:19:12 AM 34.9930 43.8790 337° Northwest 486 559 36,000  Level FlightAware ADS-B
Sat 09:19:52 AM 35.0760 43.8350 337° Northwest 485 558 36,000  Level FlightAware ADS-B
Sat 09:20:37 AM 35.1670 43.7860 336° Northwest 484 557 36,000  Level FlightAware ADS-B
Sat 09:21:17 AM 35.2490 43.7430 337° Northwest 484 557 36,000  Level FlightAware ADS-B
Sat 09:22:02 AM 35.3430 43.6930 337° Northwest 486 559 36,000  Level FlightAware ADS-B
Sat 09:22:42 AM 35.4250 43.6490 336° Northwest 483 556 36,000  Level FlightAware ADS-B
Sat 09:23:22 AM 35.5070 43.6050 336° Northwest 478 550 36,000  Level FlightAware ADS-B
Sat 09:24:02 AM 35.5880 43.5620 337° Northwest 476 548 36,000  Level FlightAware ADS-B
Sat 09:24:47 AM 35.6770 43.5140 336° Northwest 474 545 36,000  Level FlightAware ADS-B
Sat 09:25:27 AM 35.7580 43.4710 337° Northwest 476 548 36,000  Level FlightAware ADS-B
Sat 09:26:12 AM 35.8510 43.4210 336° Northwest 477 549 36,000  Level FlightAware ADS-B
Sat 09:26:52 AM 35.9310 43.3770 336° Northwest 476 548 36,000  Level FlightAware ADS-B
Sat 09:27:37 AM 36.0200 43.3290 336° Northwest 471 542 36,000  Level FlightAware ADS-B
Sat 09:28:17 AM 36.1000 43.2860 337° Northwest 474 545 36,000  Level FlightAware ADS-B
Sat 09:28:57 AM 36.1790 43.2420 336° Northwest 475 547 36,000  Level FlightAware ADS-B
Sat 09:29:42 AM 36.2720 43.1910 336° Northwest 473 544 36,000  Level FlightAware ADS-B
Sat 09:30:22 AM 36.3530 43.1470 336° Northwest 474 545 36,000  Level FlightAware ADS-B
Sat 09:31:07 AM 36.4390 43.0990 336° Northwest 477 549 36,000  Level FlightAware ADS-B
Sat 09:31:47 AM 36.5210 43.0540 336° Northwest 475 547 36,000  Level FlightAware ADS-B
Sat 09:32:27 AM 36.6010 43.0090 336° Northwest 469 540 36,000  Level FlightAware ADS-B
Sat 09:33:12 AM 36.6880 42.9600 336° Northwest 466 536 36,000  Level FlightAware ADS-B
Sat 09:33:52 AM 36.7670 42.9160 336° Northwest 464 534 36,000  Level FlightAware ADS-B
Sat 09:34:37 AM 36.8580 42.8660 336° Northwest 464 534 36,000  Level FlightAware ADS-B
Sat 09:35:17 AM 36.9330 42.8250 336° Northwest 464 534 36,000  Level FlightAware ADS-B
Sat 09:35:57 AM 37.0150 42.7790 336° Northwest 466 536 36,000  Level FlightAware ADS-B
Sat 09:36:42 AM 37.1030 42.7310 336° Northwest 465 535 36,000  Level FlightAware ADS-B
Sat 09:37:22 AM 37.1820 42.6870 336° Northwest 462 532 36,000  Level FlightAware ADS-B
Sat 09:38:02 AM 37.2550 42.6380 332° Northwest 457 526 36,000  Level FlightAware ADS-B
Sat 09:38:47 AM 37.3290 42.5570 319° Northwest 453 521 36,000  Level FlightAware ADS-B
Sat 09:39:32 AM 37.3980 42.4790 318° Northwest 455 524 36,000  Level FlightAware ADS-B
Sat 09:39:57 AM 37.4350 42.4360 317° Northwest 455 524 36,000  Level FlightAware ADS-B
Sat 09:40:37 AM 37.4970 42.3630 317° Northwest 453 521 36,000  Level FlightAware ADS-B
Sat 09:41:22 AM 37.5670 42.2820 317° Northwest 450 518 36,000  Level FlightAware ADS-B
Sat 09:41:57 AM 37.6180 42.2240 318° Northwest 451 519 36,000  Level FlightAware ADS-B
Sat 09:42:47 AM 37.6960 42.1330 317° Northwest 449 517 36,000  Level FlightAware ADS-B
Sat 09:43:27 AM 37.7580 42.0600 317° Northwest 451 519 36,000  Level FlightAware ADS-B
Sat 09:44:12 AM 37.8260 41.9800 317° Northwest 451 519 36,000  Level FlightAware ADS-B
Sat 09:44:52 AM 37.8840 41.9120 317° Northwest 450 518 36,000  Level FlightAware ADS-B
Sat 09:45:37 AM 37.9490 41.8250 313° West 446 513 36,000  Level FlightAware ADS-B
Sat 09:46:22 AM 38.0070 41.7420 312° West 445 512 36,000  Level FlightAware ADS-B
Sat 09:47:07 AM 38.0630 41.6610 311° West 445 512 36,000  Level FlightAware ADS-B
Sat 09:47:52 AM 38.0500 41.6800 131° Southeast 445 512 36,000  Level FlightAware ADS-B
Sat 09:48:32 AM 38.0960 41.6130 311° West 445 512 36,000  Level FlightAware ADS-B
Sat 09:49:12 AM 38.1420 41.5460 311° West 445 512 36,000  Level FlightAware ADS-B
Sat 09:50:02 AM 38.1990 41.4620 311° West 445 512 36,000  Level FlightAware ADS-B
Sat 09:50:42 AM 38.2450 41.3940 311° West 445 512 36,000  Level FlightAware ADS-B
Sat 09:51:22 AM 38.2910 41.3270 311° West 445 512 36,000  Level FlightAware ADS-B
Sat 09:52:02 AM 38.3370 41.2600 311° West 445 512 36,000  Level FlightAware ADS-B
Sat 09:52:52 AM 38.3940 41.1750 311° West 445 512 36,000  Level FlightAware ADS-B
Sat 09:53:32 AM 38.4400 41.1080 311° West 445 512 36,000  Level FlightAware ADS-B
Sat 09:54:12 AM 38.4860 41.0410 311° West 445 512 36,000  Level FlightAware ADS-B
Sat 09:54:52 AM 38.5320 40.9730 311° West 445 512 36,000  Level FlightAware ADS-B
Sat 09:55:32 AM 38.5780 40.9060 311° West 445 512 36,000  Level FlightAware ADS-B
Sat 09:56:12 AM 38.6240 40.8380 311° West 445 512 36,000  Level FlightAware ADS-B
Sat 09:57:02 AM 38.6810 40.7530 311° West 445 512 36,000 45 Level FlightAware ADS-B
Sat 09:59:00 AM 38.8372 40.5567 316° Northwest  Level Estimated
Sat 10:00:00 AM 38.9165 40.4565 316° Northwest  Level Estimated
Sat 10:01:00 AM 38.9957 40.3562 315° West  Level Estimated
Sat 10:02:00 AM 39.0748 40.2556 315° West  Level Estimated
Sat 10:03:00 AM 39.1538 40.1548 315° West  Level Estimated
Sat 10:04:00 AM 39.2327 40.0537 315° West  Level Estimated
Sat 10:05:00 AM 39.3116 39.9524 315° West  Level Estimated
Sat 10:06:00 AM 39.3903 39.8509 315° West  Level Estimated
Sat 10:07:00 AM 39.4690 39.7492 315° West  Level Estimated
Sat 10:08:00 AM 39.5476 39.6472 315° West  Level Estimated
Sat 10:09:00 AM 39.6261 39.5450 315° West  Level Estimated
Sat 10:10:00 AM 39.7045 39.4426 315° West  Level Estimated
Sat 10:11:00 AM 39.7828 39.3399 315° West  Level Estimated
Sat 10:12:00 AM 39.8611 39.2370 315° West  Level Estimated
Sat 10:13:00 AM 39.9392 39.1339 315° West  Level Estimated
Sat 10:14:00 AM 40.0172 39.0305 315° West  Level Estimated
Sat 10:15:00 AM 40.0952 38.9269 315° West  Level Estimated
Sat 10:16:00 AM 40.1730 38.8231 314° West  Level Estimated
Sat 10:17:00 AM 40.2508 38.7190 314° West  Level Estimated
Sat 10:18:00 AM 40.3285 38.6147 314° West  Level Estimated
Sat 10:19:00 AM 40.4061 38.5101 314° West  Level Estimated
Sat 10:20:00 AM 40.4835 38.4053 314° West  Level Estimated
Sat 10:21:00 AM 40.5609 38.3003 314° West  Level Estimated
Sat 10:22:00 AM 40.6382 38.1950 314° West  Level Estimated
Sat 10:23:00 AM 40.7154 38.0895 314° West  Level Estimated
Sat 10:24:00 AM 40.7925 37.9837 314° West  Level Estimated
Sat 10:25:00 AM 40.8695 37.8777 314° West  Level Estimated
Sat 10:26:00 AM 40.9464 37.7714 314° West  Level Estimated
Sat 10:27:00 AM 41.0232 37.6649 314° West  Level Estimated
Sat 10:28:00 AM 41.0999 37.5582 314° West  Level Estimated
Sat 10:29:00 AM 41.1766 37.4512 314° West  Level Estimated
Sat 10:30:00 AM 41.2531 37.3439 314° West  Level Estimated
Sat 10:31:00 AM 41.3295 37.2364 313° West  Level Estimated
Sat 10:32:00 AM 41.4058 37.1286 313° West  Level Estimated
Sat 10:33:00 AM 41.4820 37.0206 313° West  Level Estimated
Sat 10:34:00 AM 41.5581 36.9123 313° West  Level Estimated
Sat 10:35:00 AM 41.6341 36.8038 313° West  Level Estimated
Sat 10:36:00 AM 41.7100 36.6950 313° West  Level Estimated
Sat 10:37:00 AM 41.7858 36.5860 313° West  Level Estimated
Sat 10:38:00 AM 41.8615 36.4767 313° West  Level Estimated
Sat 10:39:00 AM 41.9371 36.3671 313° West  Level Estimated
Sat 10:40:00 AM 42.0126 36.2573 313° West  Level Estimated
Sat 10:40:12 AM 42.0920 34.9870 313° West 449 517 38,000  Level FlightAware ADS-B
Sat 10:40:52 AM 42.1700 34.8860 316° Northwest 449 517 38,000  Level FlightAware ADS-B
Sat 10:41:00 AM 42.0880 36.1472 313° West  Level Estimated
Sat 10:41:47 AM 42.1570 34.9030 136° Southeast 448 516 38,000  Level FlightAware ADS-B
Sat 10:42:27 AM 42.2080 34.8370 316° Northwest 448 516 38,000  Level FlightAware ADS-B
Sat 10:43:17 AM 42.2710 34.7540 316° Northwest 448 516 38,000  Level FlightAware ADS-B
Sat 10:43:57 AM 42.3220 34.6880 316° Northwest 448 516 38,000  Level FlightAware ADS-B
Sat 10:44:37 AM 42.5090 34.4460 316° Northwest 442 509 38,000  Level FlightAware ADS-B
Sat 10:45:22 AM 42.5740 34.3610 316° Northwest 442 509 38,000  Level FlightAware ADS-B
Sat 10:46:02 AM 42.6330 34.2840 316° Northwest 442 509 38,000  Level FlightAware ADS-B
Sat 10:46:42 AM 42.6920 34.2050 315° West 444 511 38,000  Level FlightAware ADS-B
Sat 10:47:27 AM 42.7570 34.1190 316° Northwest 446 513 38,000  Level FlightAware ADS-B
Sat 10:48:07 AM 42.8210 34.0420 319° Northwest 447 514 38,000  Level FlightAware ADS-B
Sat 10:48:52 AM 42.8920 33.9610 320° Northwest 447 514 38,000  Level FlightAware ADS-B
Sat 10:49:32 AM 42.9560 33.8890 321° Northwest 446 513 38,000  Level FlightAware ADS-B
Sat 10:50:12 AM 43.0200 33.8150 320° Northwest 445 512 38,000  Level FlightAware ADS-B
Sat 10:50:57 AM 43.0900 33.7350 320° Northwest 447 514 38,000  Level FlightAware ADS-B
Sat 10:51:37 AM 43.1510 33.6640 320° Northwest 447 514 38,000  Level FlightAware ADS-B
Sat 10:52:22 AM 43.2240 33.5810 320° Northwest 444 511 38,000  Level FlightAware ADS-B
Sat 10:53:02 AM 43.2860 33.5080 319° Northwest 443 510 38,000  Level FlightAware ADS-B
Sat 10:53:42 AM 43.3480 33.4370 320° Northwest 443 510 38,000  Level FlightAware ADS-B
Sat 10:54:27 AM 43.4190 33.3540 320° Northwest 444 511 38,000  Level FlightAware ADS-B
Sat 10:55:07 AM 43.4830 33.2800 320° Northwest 446 513 38,000  Level FlightAware ADS-B
Sat 10:55:52 AM 43.5540 33.1970 320° Northwest 448 516 38,000  Level FlightAware ADS-B
Sat 10:56:32 AM 43.6160 33.1240 320° Northwest 449 517 38,000  Level FlightAware ADS-B
Sat 10:57:12 AM 43.6790 33.0490 319° Northwest 449 517 38,000  Level FlightAware ADS-B
Sat 10:57:57 AM 43.7510 32.9640 320° Northwest 450 518 38,000  Level FlightAware ADS-B
Sat 10:58:37 AM 43.8120 32.8910 319° Northwest 450 518 38,000  Level FlightAware ADS-B
Sat 10:59:22 AM 43.8850 32.8040 319° Northwest 451 519 38,000  Level FlightAware ADS-B
Sat 11:00:02 AM 43.9490 32.7280 319° Northwest 451 519 38,000  Level FlightAware ADS-B
Sat 11:00:42 AM 44.0110 32.6530 319° Northwest 453 521 38,000  Level FlightAware ADS-B
Sat 11:01:27 AM 44.0830 32.5670 319° Northwest 453 521 38,000  Level FlightAware ADS-B
Sat 11:02:07 AM 44.1450 32.4910 319° Northwest 453 521 38,000  Level FlightAware ADS-B
Sat 11:02:47 AM 44.2070 32.4170 319° Northwest 454 522 38,000  Level FlightAware ADS-B
Sat 11:03:32 AM 44.2810 32.3310 320° Northwest 456 525 38,000  Level FlightAware ADS-B
Sat 11:04:12 AM 44.3460 32.2550 320° Northwest 456 525 38,000  Level FlightAware ADS-B
Sat 11:04:57 AM 44.4180 32.1700 320° Northwest 455 524 38,000  Level FlightAware ADS-B
Sat 11:05:42 AM 44.4890 32.0840 319° Northwest 454 522 38,000  Level FlightAware ADS-B
Sat 11:06:22 AM 44.5530 32.0090 320° Northwest 455 524 38,000  Level FlightAware ADS-B
Sat 11:07:02 AM 44.6170 31.9280 318° Northwest 452 520 38,000  Level FlightAware ADS-B
Sat 11:07:42 AM 44.6790 31.8500 318° Northwest 451 519 38,000  Level FlightAware ADS-B
Sat 11:08:27 AM 44.7470 31.7640 318° Northwest 450 518 38,000  Level FlightAware ADS-B
Sat 11:09:07 AM 44.8090 31.6850 318° Northwest 448 516 38,000  Level FlightAware ADS-B
Sat 11:09:52 AM 44.8750 31.6020 318° Northwest 449 517 38,000  Level FlightAware ADS-B
Sat 11:10:32 AM 44.9370 31.5240 318° Northwest 451 519 38,000  Level FlightAware ADS-B
Sat 11:11:12 AM 45.0030 31.4400 318° Northwest 451 519 38,000  Level FlightAware ADS-B
Sat 11:11:57 AM 45.0720 31.3510 318° Northwest 449 517 38,000  Level FlightAware ADS-B
Sat 11:12:37 AM 45.1320 31.2750 318° Northwest 448 516 38,000  Level FlightAware ADS-B
Sat 11:13:07 AM 45.1790 31.2140 318° Northwest 448 516 38,000  Level FlightAware ADS-B
Sat 11:13:47 AM 45.2400 31.1360 318° Northwest 448 516 38,000  Level FlightAware ADS-B
Sat 11:14:32 AM 45.3090 31.0480 318° Northwest 449 517 38,000  Level FlightAware ADS-B
Sat 11:15:52 AM 45.4350 30.8900 319° Northwest 449 517 38,000  Level FlightAware ADS-B
Sat 11:16:42 AM 45.4630 30.8550 319° Northwest 449 517 38,000  Level FlightAware ADS-B
Sat 11:17:32 AM 45.4720 30.8430 317° Northwest 450 518 38,000  Level FlightAware ADS-B
Sat 11:18:12 AM 45.6480 30.6200 319° Northwest 451 519 38,000  Level FlightAware ADS-B
Sat 11:18:52 AM 45.7080 30.5440 319° Northwest 453 521 38,000  Level FlightAware ADS-B
Sat 11:19:47 AM 45.7920 30.4350 318° Northwest 457 526 38,000  Level FlightAware ADS-B
Sat 11:20:37 AM 45.8730 30.3320 318° Northwest 459 528 38,000  Level FlightAware ADS-B
Sat 11:21:17 AM 45.9430 30.2410 318° Northwest 460 529 38,000  Level FlightAware ADS-B
Sat 11:21:57 AM 46.0040 30.1630 318° Northwest 460 529 38,000  Level FlightAware ADS-B
Sat 11:22:42 AM 46.0760 30.0690 318° Northwest 461 531 38,000  Level FlightAware ADS-B
Sat 11:23:22 AM 46.1380 29.9870 318° Northwest 463 533 38,000  Level FlightAware ADS-B
Sat 11:24:07 AM 46.2110 29.8930 318° Northwest 463 533 38,000  Level FlightAware ADS-B
Sat 11:24:47 AM 46.2750 29.8080 317° Northwest 465 535 38,000  Level FlightAware ADS-B
Sat 11:25:27 AM 46.3290 29.7370 318° Northwest 465 535 38,000  Level FlightAware ADS-B
Sat 11:26:12 AM 46.3990 29.6440 318° Northwest 467 537 38,000  Level FlightAware ADS-B
Sat 11:26:57 AM 46.4710 29.5430 316° Northwest 468 539 38,000  Level FlightAware ADS-B
Sat 11:27:47 AM 46.5510 29.4310 316° Northwest 467 537 38,000  Level FlightAware ADS-B
Sat 11:28:32 AM 46.6180 29.3380 316° Northwest 466 536 38,000  Level FlightAware ADS-B
Sat 11:29:12 AM 46.6790 29.2530 316° Northwest 465 535 38,000  Level FlightAware ADS-B
Sat 11:29:52 AM 46.7450 29.1600 316° Northwest 462 532 38,000  Level FlightAware ADS-B
Sat 11:30:37 AM 46.8060 29.0740 316° Northwest 462 532 38,000  Level FlightAware ADS-B
Sat 11:31:17 AM 46.8660 28.9900 316° Northwest 463 533 38,000  Level FlightAware ADS-B
Sat 11:32:02 AM 46.9420 28.8820 316° Northwest 462 532 38,000  Level FlightAware ADS-B
Sat 11:32:57 AM 47.0270 28.7680 318° Northwest 464 534 38,000  Level FlightAware ADS-B
Sat 11:33:37 AM 47.0900 28.6820 317° Northwest 462 532 38,000  Level FlightAware ADS-B
Sat 11:34:22 AM 47.1630 28.5830 317° Northwest 459 528 38,000  Level FlightAware ADS-B
Sat 11:34:57 AM 47.2170 28.5090 317° Northwest 459 528 38,000  Level FlightAware ADS-B
Sat 11:35:52 AM 47.2920 28.4060 317° Northwest 463 533 38,000  Level FlightAware ADS-B
Sat 11:36:37 AM 47.3790 28.2860 317° Northwest 461 531 38,000  Level FlightAware ADS-B
Sat 11:37:22 AM 47.4380 28.2040 317° Northwest 459 528 38,000  Level FlightAware ADS-B
Sat 11:38:02 AM 47.4960 28.1240 317° Northwest 457 526 38,000  Level FlightAware ADS-B
Sat 11:38:37 AM 47.5630 28.0300 317° Northwest 456 525 38,000  Level FlightAware ADS-B
Sat 11:39:27 AM 47.6330 27.9320 317° Northwest 462 532 38,000  Level FlightAware ADS-B
Sat 11:40:12 AM 47.7020 27.8360 317° Northwest 460 529 38,000  Level FlightAware ADS-B
Sat 11:40:47 AM 47.7540 27.7620 316° Northwest 459 528 38,000  Level FlightAware ADS-B
Sat 11:41:32 AM 47.8180 27.6720 317° Northwest 461 531 38,000  Level FlightAware ADS-B
Sat 11:42:17 AM 47.8820 27.5800 316° Northwest 461 531 38,000  Level FlightAware ADS-B
Sat 11:43:07 AM 47.9660 27.4610 317° Northwest 463 533 38,000  Level FlightAware ADS-B
Sat 11:44:12 AM 48.0740 27.3060 316° Northwest 463 533 38,000  Level FlightAware ADS-B
Sat 11:44:52 AM 48.1370 27.2170 317° Northwest 463 533 38,000  Level FlightAware ADS-B
Sat 11:45:32 AM 48.1960 27.1310 316° Northwest 463 533 38,000  Level FlightAware ADS-B
Sat 11:46:17 AM 48.2650 27.0310 316° Northwest 464 534 38,000  Level FlightAware ADS-B
Sat 11:46:47 AM 48.3080 26.9680 316° Northwest 466 536 38,000  Level FlightAware ADS-B
Sat 11:47:42 AM 48.3970 26.8370 316° Northwest 467 537 38,000  Level FlightAware ADS-B
Sat 11:48:22 AM 48.4460 26.7370 306° West 463 533 38,000  Level FlightAware ADS-B
Sat 11:49:02 AM 48.4930 26.6210 301° West 455 524 38,000  Level FlightAware ADS-B
Sat 11:49:37 AM 48.5300 26.5300 302° West 454 522 38,000  Level FlightAware ADS-B
Sat 11:50:27 AM 48.5810 26.4020 301° West 455 524 38,000  Level FlightAware ADS-B
Sat 11:51:07 AM 48.6260 26.2910 302° West 454 522 38,000  Level FlightAware ADS-B
Sat 11:52:07 AM 48.6940 26.1190 301° West 457 526 38,000  Level FlightAware ADS-B
Sat 11:52:42 AM 48.7280 26.0340 301° West 461 531 38,000  Level FlightAware ADS-B
Sat 11:53:27 AM 48.7800 25.9030 301° West 461 531 38,000  Level FlightAware ADS-B
Sat 11:54:07 AM 48.8240 25.7920 301° West 460 529 38,000  Level FlightAware ADS-B
Sat 11:54:52 AM 48.8720 25.6690 301° West 462 532 38,000  Level FlightAware ADS-B
Sat 11:55:32 AM 48.9180 25.5510 301° West 456 525 38,000  Level FlightAware ADS-B
Sat 11:56:12 AM 48.9590 25.4450 301° West 454 522 38,000  Level FlightAware ADS-B
Sat 11:56:52 AM 49.0000 25.3400 301° West 456 525 38,000  Level FlightAware ADS-B
Sat 11:57:32 AM 49.0430 25.2280 300° West 457 526 38,000  Level FlightAware ADS-B
Sat 11:58:07 AM 49.0840 25.1220 301° West 457 526 38,000  Level FlightAware ADS-B
Sat 11:59:02 AM 49.1440 24.9660 300° West 457 526 38,000  Level FlightAware ADS-B
Sat 11:59:42 AM 49.1820 24.8630 299° West 455 524 38,000  Level FlightAware ADS-B
Sat 12:00:22 PM 49.2240 24.7530 300° West 453 521 38,000  Level FlightAware ADS-B
Sat 12:01:07 PM 49.2700 24.6310 300° West 455 524 38,000  Level FlightAware ADS-B
Sat 12:01:42 PM 49.3110 24.5210 300° West 454 522 38,000  Level FlightAware ADS-B
Sat 12:02:27 PM 49.3540 24.4080 300° West 452 520 38,000  Level FlightAware ADS-B
Sat 12:03:27 PM 49.4170 24.2370 300° West 450 518 38,000  Level FlightAware ADS-B
Sat 12:04:02 PM 49.4560 24.1320 300° West 449 517 38,000  Level FlightAware ADS-B
Sat 12:04:52 PM 49.5010 24.0110 300° West 450 518 38,000  Level FlightAware ADS-B
Sat 12:05:32 PM 49.5460 23.8880 299° West 450 518 38,000  Level FlightAware ADS-B
Sat 12:06:12 PM 49.5850 23.7790 299° West 450 518 38,000  Level FlightAware ADS-B
Sat 12:06:57 PM 49.6300 23.6560 299° West 452 520 38,000  Level FlightAware ADS-B
Sat 12:07:37 PM 49.6720 23.5390 299° West 454 522 38,000  Level FlightAware ADS-B
Sat 12:08:17 PM 49.7150 23.4200 299° West 457 526 38,000  Level FlightAware ADS-B
Sat 12:09:02 PM 49.7580 23.3010 299° West 455 524 38,000  Level FlightAware ADS-B
Sat 12:09:47 PM 49.8040 23.1700 299° West 452 520 38,000  Level FlightAware ADS-B
Sat 12:10:27 PM 49.8440 23.0570 299° West 450 518 38,000  Level FlightAware ADS-B
Sat 12:11:12 PM 49.8840 22.9440 299° West 450 518 38,000  Level FlightAware ADS-B
Sat 12:11:52 PM 49.9290 22.8180 299° West 450 518 38,000  Level FlightAware ADS-B
Sat 12:12:27 PM 49.9650 22.7150 299° West 447 514 38,000  Level FlightAware ADS-B
Sat 12:13:17 PM 50.0080 22.5910 298° West 447 514 38,000  Level FlightAware ADS-B
Sat 12:13:52 PM 50.0460 22.4820 299° West 447 514 38,000  Level FlightAware ADS-B
Sat 12:14:42 PM 50.0920 22.3470 298° West 445 512 38,000  Level FlightAware ADS-B
Sat 12:15:22 PM 50.1320 22.2310 298° West 446 513 38,000  Level FlightAware ADS-B
Sat 12:16:02 PM 50.1730 22.1110 298° West 447 514 38,000  Level FlightAware ADS-B
Sat 12:16:47 PM 50.2160 21.9850 298° West 449 517 38,000  Level FlightAware ADS-B
Sat 12:17:27 PM 50.2530 21.8750 298° West 450 518 38,000  Level FlightAware ADS-B
Sat 12:18:07 PM 50.2920 21.7590 298° West 449 517 38,000  Level FlightAware ADS-B
Sat 12:18:52 PM 50.3380 21.6220 298° West 451 519 38,000  Level FlightAware ADS-B
Sat 12:19:27 PM 50.3700 21.5250 297° West 450 518 38,000  Level FlightAware ADS-B
Sat 12:20:17 PM 50.4180 21.3830 298° West 449 517 38,000  Level FlightAware ADS-B
Sat 12:20:52 PM 50.4480 21.2920 297° West 450 518 38,000  Level FlightAware ADS-B
Sat 12:21:42 PM 50.5040 21.1220 297° West 455 524 38,000  Level FlightAware ADS-B
Sat 12:22:22 PM 50.5430 21.0010 297° West 457 526 38,000  Level FlightAware ADS-B
Sat 12:23:02 PM 50.5820 20.8820 297° West 457 526 38,000  Level FlightAware ADS-B
Sat 12:23:47 PM 50.6240 20.7530 297° West 456 525 38,000  Level FlightAware ADS-B
Sat 12:24:27 PM 50.6620 20.6340 297° West 456 525 38,000  Level FlightAware ADS-B
Sat 12:25:07 PM 50.7010 20.5140 297° West 455 524 38,000  Level FlightAware ADS-B
Sat 12:25:52 PM 50.7420 20.3850 297° West 456 525 38,000  Level FlightAware ADS-B
Sat 12:26:32 PM 50.7800 20.2660 297° West 456 525 38,000  Level FlightAware ADS-B
Sat 12:27:17 PM 50.8220 20.1310 296° West 457 526 38,000  Level FlightAware ADS-B
Sat 12:27:57 PM 50.8600 20.0110 297° West 456 525 38,000  Level FlightAware ADS-B
Sat 12:28:42 PM 50.9030 19.8730 296° West 455 524 38,000  Level FlightAware ADS-B
Sat 12:29:22 PM 50.9410 19.7520 297° West 454 522 38,000  Level FlightAware ADS-B
Sat 12:30:07 PM 50.9810 19.6200 296° West 453 521 38,000  Level FlightAware ADS-B
Sat 12:30:47 PM 51.0170 19.5040 296° West 453 521 38,000  Level FlightAware ADS-B
Sat 12:31:27 PM 51.0540 19.3840 296° West 453 521 38,000  Level FlightAware ADS-B
Sat 12:31:57 PM 51.0770 19.3070 295° West 453 521 38,000  Level FlightAware ADS-B
Sat 12:32:37 PM 51.1170 19.1750 296° West 453 521 38,000  Level FlightAware ADS-B
Sat 12:33:22 PM 51.1580 19.0420 296° West 453 521 38,000  Level FlightAware ADS-B
Sat 12:34:02 PM 51.1940 18.9210 295° West 454 522 38,000  Level FlightAware ADS-B
Sat 12:34:47 PM 51.2350 18.7820 295° West 454 522 38,000  Level FlightAware ADS-B
Sat 12:35:27 PM 51.2720 18.6590 296° West 454 522 38,000  Level FlightAware ADS-B
Sat 12:36:07 PM 51.3070 18.5400 295° West 454 522 38,000  Level FlightAware ADS-B
Sat 12:36:47 PM 51.3440 18.4160 296° West 452 520 38,000  Level FlightAware ADS-B
Sat 12:37:32 PM 51.3810 18.2880 295° West 450 518 38,000  Level FlightAware ADS-B
Sat 12:38:12 PM 51.4160 18.1690 295° West 449 517 38,000  Level FlightAware ADS-B
Sat 12:38:57 PM 51.4560 18.0280 295° West 451 519 38,000  Level FlightAware ADS-B
Sat 12:39:37 PM 51.4920 17.9050 295° West 453 521 38,000  Level FlightAware ADS-B
Sat 12:40:17 PM 51.5260 17.7860 295° West 453 521 38,000  Level FlightAware ADS-B
Sat 12:41:02 PM 51.5650 17.6480 294° West 453 521 38,000  Level FlightAware ADS-B
Sat 12:41:42 PM 51.6000 17.5250 295° West 453 521 38,000  Level FlightAware ADS-B
Sat 12:42:27 PM 51.6390 17.3860 294° West 452 520 38,000  Level FlightAware ADS-B
Sat 12:43:07 PM 51.6730 17.2660 295° West 452 520 38,000  Level FlightAware ADS-B
Sat 12:43:52 PM 51.7100 17.1330 294° West 450 518 38,000  Level FlightAware ADS-B
Sat 12:44:32 PM 51.7450 17.0070 294° West 450 518 38,000  Level FlightAware ADS-B
Sat 12:45:12 PM 51.7800 16.8800 294° West 452 520 38,000  Level FlightAware ADS-B
Sat 12:45:57 PM 51.8170 16.7440 294° West 453 521 38,000  Level FlightAware ADS-B
Sat 12:46:37 PM 51.8500 16.6240 294° West 454 522 38,000  Level FlightAware ADS-B
Sat 12:47:22 PM 51.8860 16.4920 294° West 454 522 38,000  Level FlightAware ADS-B
Sat 12:48:02 PM 51.9230 16.3520 293° West 453 521 38,000  Level FlightAware ADS-B
Sat 12:48:42 PM 51.9570 16.2270 294° West 454 522 38,000  Level FlightAware ADS-B
Sat 12:49:27 PM 51.9910 16.0960 293° West 453 521 38,000  Level FlightAware ADS-B
Sat 12:50:07 PM 52.0260 15.9680 294° West 454 522 38,000  Level FlightAware ADS-B
Sat 12:50:52 PM 52.0630 15.8280 293° West 456 525 38,000  Level FlightAware ADS-B
Sat 12:51:32 PM 52.0960 15.7000 293° West 453 521 38,000  Level FlightAware ADS-B
Sat 12:52:12 PM 52.1280 15.5750 293° West 449 517 38,000  Level FlightAware ADS-B
Sat 12:52:57 PM 52.1660 15.4310 293° West 449 517 38,000  Level FlightAware ADS-B
Sat 12:53:37 PM 52.1980 15.3070 293° West 450 518 38,000  Level FlightAware ADS-B
Sat 12:54:22 PM 52.2330 15.1690 293° West 450 518 38,000  Level FlightAware ADS-B
Sat 12:55:02 PM 52.2650 15.0430 293° West 449 517 38,000  Level FlightAware ADS-B
Sat 12:55:42 PM 52.2960 14.9180 292° West 452 520 38,000  Level FlightAware ADS-B
Sat 12:56:27 PM 52.3320 14.7710 292° West 453 521 38,000  Level FlightAware ADS-B
Sat 12:57:07 PM 52.3620 14.6460 291° West 453 521 38,000  Level FlightAware ADS-B
Sat 12:57:52 PM 52.3970 14.5040 292° West 451 519 38,000  Level FlightAware ADS-B
Sat 12:58:32 PM 52.4270 14.3790 292° West 449 517 38,000  Level FlightAware ADS-B
Sat 12:59:12 PM 52.4570 14.2540 292° West 447 514 38,000  Level FlightAware ADS-B
Sat 12:59:57 PM 52.4920 14.1090 292° West 445 512 38,000  Level FlightAware ADS-B
Sat 01:00:37 PM 52.5220 13.9820 291° West 446 513 38,000  Level FlightAware ADS-B
Sat 01:01:22 PM 52.5540 13.8430 291° West 445 512 38,000  Level FlightAware ADS-B
Sat 01:02:02 PM 52.5840 13.7190 292° West 444 511 38,000  Level FlightAware ADS-B
Sat 01:02:42 PM 52.6130 13.5910 291° West 443 510 38,000  Level FlightAware ADS-B
Sat 01:03:27 PM 52.6460 13.4490 291° West 442 509 38,000  Level FlightAware ADS-B
Sat 01:04:07 PM 52.6750 13.3220 291° West 442 509 38,000 -353 Level FlightAware ADS-B
Sat 01:04:52 PM 52.7070 13.1820 291° West 448 516 37,500 -1,059 Descending FlightAware ADS-B
Sat 01:05:32 PM 52.7390 13.0570 293° West 436 502 36,500 -1,425 Descending FlightAware ADS-B
Sat 01:06:12 PM 52.7790 12.9460 301° West 420 483 35,600 -1,482 Descending FlightAware ADS-B
Sat 01:06:57 PM 52.8260 12.8270 303° West 402 463 34,400 -1,553 Descending FlightAware ADS-B
Sat 01:07:37 PM 52.8660 12.7250 303° West 389 448 33,400 -1,482 Descending FlightAware ADS-B
Sat 01:08:22 PM 52.9090 12.6170 303° West 375 432 32,300 -1,553 Descending FlightAware ADS-B
Sat 01:09:02 PM 52.9460 12.5220 303° West 373 429 31,200 -1,800 Descending FlightAware ADS-B
Sat 01:09:42 PM 52.9840 12.4260 303° West 367 422 29,900 -1,976 Descending FlightAware ADS-B
Sat 01:10:27 PM 53.0240 12.3220 303° West 358 412 28,400 -1,976 Descending FlightAware ADS-B
Sat 01:11:07 PM 53.0590 12.2320 303° West 352 405 27,100 -1,950 Descending FlightAware ADS-B
Sat 01:11:47 PM 53.0940 12.1410 303° West 348 400 25,800 -1,976 Descending FlightAware ADS-B
Sat 01:12:32 PM 53.1340 12.0370 303° West 342 394 24,300 -1,980 Descending FlightAware ADS-B
Sat 01:13:27 PM 53.1790 11.9190 303° West 336 387 22,500 -1,453 Descending FlightAware ADS-B
Sat 01:14:07 PM 53.2140 11.8360 305° West 323 372 22,000 -675 Descending FlightAware ADS-B
Sat 01:14:47 PM 53.2520 11.7660 312° West 312 359 21,600 -847 Descending FlightAware ADS-B
Sat 01:15:32 PM 53.2960 11.6840 312° West 310 357 20,800 -1,271 Descending FlightAware ADS-B
Sat 01:16:12 PM 53.3350 11.6130 313° West 308 354 19,800 -1,624 Descending FlightAware ADS-B
Sat 01:16:57 PM 53.3780 11.5330 312° West 305 351 18,500 -1,680 Descending FlightAware ADS-B
Sat 01:17:27 PM 53.4060 11.4810 312° West 304 350 17,700 -1,440 Descending FlightAware ADS-B
Sat 01:18:12 PM 53.4490 11.4040 313° West 296 341 16,700 -1,200 Descending FlightAware ADS-B
Sat 01:18:52 PM 53.4840 11.3420 314° West 282 325 16,000 -1,271 Descending FlightAware ADS-B
Sat 01:19:37 PM 53.5250 11.2680 313° West 280 322 14,900 -1,553 Descending FlightAware ADS-B
Sat 01:20:17 PM 53.5600 11.2040 313° West 280 322 13,800 -1,500 Descending FlightAware ADS-B
Sat 01:20:57 PM 53.5960 11.1400 313° West 278 320 12,900 -1,412 Descending FlightAware ADS-B
Sat 01:21:42 PM 53.6350 11.0700 313° West 273 314 11,800 -1,412 Descending FlightAware ADS-B
Sat 01:22:22 PM 53.6690 11.0090 313° West 271 312 10,900 -1,341 Descending FlightAware ADS-B
Sat 01:23:07 PM 53.7060 10.9370 311° West 265 305 9,900 -1,309 Descending FlightAware ADS-B
Sat 01:23:17 PM 53.7120 10.9200 301° West 263 303 9,700 -1,200 Descending FlightAware ADS-B
Sat 01:23:47 PM 53.7320 10.8690 304° West 261 300 9,100 -1,200 Descending FlightAware ADS-B
Sat 01:24:17 PM 53.7510 10.8190 303° West 259 298 8,500 -1,418 Descending FlightAware ADS-B
Sat 01:24:42 PM 53.7670 10.7760 302° West 259 298 7,800 -1,309 Descending FlightAware ADS-B
Sat 01:25:12 PM 53.7870 10.7240 303° West 256 295 7,300 -982 Descending FlightAware ADS-B
Sat 01:25:37 PM 53.8030 10.6820 303° West 254 292 6,900 -764 Descending FlightAware ADS-B
Sat 01:26:07 PM 53.8210 10.6340 302° West 252 290 6,600 -764 Descending FlightAware ADS-B
Sat 01:26:32 PM 53.8380 10.5900 303° West 251 289 6,200 -873 Descending FlightAware ADS-B
Sat 01:27:02 PM 53.8550 10.5450 303° West 251 289 5,800 -873 Descending FlightAware ADS-B
Sat 01:27:27 PM 53.8670 10.4980 293° West 242 278 5,400 -873 Descending FlightAware ADS-B
Sat 01:27:57 PM 53.8550 10.4480 248° West 224 258 5,000 -800 Descending FlightAware ADS-B
Sat 01:28:27 PM 53.8360 10.4080 231° Southwest 219 252 4,600 -764 Descending FlightAware ADS-B
Sat 01:28:52 PM 53.8200 10.3760 230° Southwest 214 246 4,300 -764 Descending FlightAware ADS-B
Sat 01:29:22 PM 53.8010 10.3360 231° Southwest 217 250 3,900 -840 Descending FlightAware ADS-B
Sat 01:29:42 PM 53.7910 10.3160 230° Southwest 212 244 3,600 -600 Descending FlightAware ADS-B
Sat 01:30:32 PM 53.7600 10.2530 230° Southwest 181 208 3,200 -514 Descending FlightAware ADS-B
Sat 01:30:52 PM 53.7510 10.2330 233° Southwest 167 192 3,000 -327 Descending FlightAware ADS-B
Sat 01:31:27 PM 53.7320 10.1950 230° Southwest 164 189 2,900 -400 Descending FlightAware ADS-B
Sat 01:31:52 PM 53.7210 10.1720 231° Southwest 167 192 2,600 -943 Descending FlightAware ADS-B
Sat 01:32:37 PM 53.6970 10.1240 230° Southwest 158 182 1,800 -880 Descending FlightAware ADS-B
Sat 01:33:07 PM 53.6850 10.1000 230° Southwest 140 161 1,500 -706 Descending FlightAware ADS-B
Sat 01:34:02 PM 53.6630 10.0540 231° Southwest 135 155 800 -825 Descending FlightAware ADS-B
Sat 01:34:27 PM 53.6520 10.0320 230° Southwest 133 153 400 -840 Descending FlightAware ADS-B
Sat 01:34:52 PM 53.6410 10.0110 229° Southwest 136 157 100 -720 Descending FlightAware ADS-B
Sat 01:35:27 PM 53.6290 9.9840 233° Southwest 137 158 -171 Descending FlightAware ADS-B
Sat 01:38:00 PM 53.6304 9.9882 61° Northeast  Level Estimated
Sat 01:39:00 PM 53.6304 9.9882 230° Southwest  Level Estimated
Sat 01:40:00 PM 53.6304 9.9882 230° Southwest  Level Estimated
Sat 01:41:00 PM 53.6304 9.9882 230° Southwest  Level Estimated
Sat 01:42:00 PM 53.6304 9.9882 230° Southwest  Level Estimated

Login

Don't have an account? Register now (free) for customized features, flight alerts, and more!